Time;durP1;ratioP1;P1;durP2;ratioP2;P2;SDS_P1;SDS_P2;PMS_P1;PMS_P2;Temp;Humidity;BMP_temperature;BMP_pressure;BME280_temperature;BME280_humidity;BME280_pressure;Samples;Min_cycle;Max_cycle;Signal;HPM_P1;HPM_P2
2021/07/27 00:00:35;;;;;;;;;20.50;19.25;;;;;21.61;100.00;101065.53;5084641;27;45277;-73
2021/07/27 00:03:01;;;;;;;;;18.50;16.75;;;;;21.60;100.00;101063.81;5098789;27;45442;-74
2021/07/27 00:05:27;;;;;;;;;16.00;15.25;;;;;21.62;100.00;101061.94;5083572;27;45572;-74
2021/07/27 00:07:53;;;;;;;;;19.00;16.75;;;;;21.58;100.00;101063.03;5097714;27;45670;-74
2021/07/27 00:10:18;;;;;;;;;20.00;17.00;;;;;21.59;100.00;101058.59;5098071;27;45418;-75
2021/07/27 00:12:44;;;;;;;;;17.00;17.00;;;;;21.53;100.00;101051.81;5098315;27;45486;-74
2021/07/27 00:15:10;;;;;;;;;19.50;17.50;;;;;21.58;100.00;101065.69;5097968;27;45556;-74
2021/07/27 00:17:35;;;;;;;;;20.00;16.00;;;;;21.55;100.00;101057.03;5097429;27;45468;-74
2021/07/27 00:20:00;;;;;;;;;17.75;15.50;;;;;21.56;100.00;101056.97;5097981;27;45487;-74
2021/07/27 00:22:26;;;;;;;;;17.50;15.75;;;;;21.53;100.00;101058.94;5093055;27;45416;-74
2021/07/27 00:24:53;;;;;;;;;21.75;18.25;;;;;21.49;100.00;101050.25;5086459;27;47442;-75
2021/07/27 00:27:19;;;;;;;;;19.25;17.50;;;;;21.43;100.00;101036.44;5097207;27;45742;-73
2021/07/27 00:29:44;;;;;;;;;19.75;16.50;;;;;21.49;100.00;101044.06;5097755;27;45462;-74
2021/07/27 00:32:09;;;;;;;;;17.00;17.00;;;;;21.50;100.00;101052.00;5098231;27;45710;-74
2021/07/27 00:34:35;;;;;;;;;14.50;14.50;;;;;21.42;100.00;101034.72;5097775;27;45449;-75
2021/07/27 00:37:00;;;;;;;;;16.25;15.00;;;;;21.50;100.00;101041.34;5097304;27;45534;-76
2021/07/27 00:39:26;;;;;;;;;17.00;14.75;;;;;21.49;100.00;101044.94;5097150;27;45481;-75
2021/07/27 00:41:52;;;;;;;;;19.00;16.25;;;;;21.45;100.00;101040.72;5087240;27;45558;-74
2021/07/27 00:44:17;;;;;;;;;17.00;16.00;;;;;21.47;100.00;101048.63;5091126;27;46082;-75
2021/07/27 00:46:42;;;;;;;;;16.50;14.75;;;;;21.41;100.00;101041.84;5075746;27;45404;-75
2021/07/27 00:49:08;;;;;;;;;16.25;15.00;;;;;21.43;100.00;101039.09;5091041;27;45452;-75
2021/07/27 00:51:34;;;;;;;;;17.00;17.00;;;;;21.42;100.00;101048.00;5082350;27;45415;-76
2021/07/27 00:53:59;;;;;;;;;18.50;17.00;;;;;21.33;100.00;101031.66;5097441;27;46409;-75
2021/07/27 00:56:26;;;;;;;;;16.50;14.75;;;;;21.40;100.00;101043.66;5096797;27;45700;-75
2021/07/27 00:58:52;;;;;;;;;18.25;14.25;;;;;21.33;100.00;101028.13;5095054;27;45380;-75
2021/07/27 01:01:18;;;;;;;;;16.75;15.75;;;;;21.36;100.00;101035.94;5097369;27;45317;-75
2021/07/27 01:03:44;;;;;;;;;19.75;18.00;;;;;21.34;100.00;101033.34;5082650;27;45487;-75
2021/07/27 01:06:09;;;;;;;;;18.50;17.00;;;;;21.32;100.00;101034.38;5095813;27;45432;-75
2021/07/27 01:08:36;;;;;;;;;14.00;13.00;;;;;21.38;100.00;101045.53;5082910;27;45472;-75
2021/07/27 01:11:02;;;;;;;;;18.75;15.75;;;;;21.28;100.00;101038.16;5096490;27;45455;-75
2021/07/27 01:13:27;;;;;;;;;14.75;14.00;;;;;21.23;100.00;101032.16;5096722;27;45403;-75
2021/07/27 01:15:55;;;;;;;;;16.25;14.25;;;;;21.27;100.00;101039.06;5090365;27;45407;-75
2021/07/27 01:18:25;;;;;;;;;18.25;15.50;;;;;21.23;100.00;101034.84;5089795;27;45422;-73
2021/07/27 01:37:28;;;;;;;;;15.00;13.50;;;;;21.24;100.00;101034.78;5096728;27;45363;-76
2021/07/27 01:37:34;;;;;;;;;14.75;13.75;;;;;21.09;100.00;101019.66;5096240;27;45416;-75
2021/07/27 01:40:00;;;;;;;;;15.00;14.50;;;;;21.08;100.00;101009.97;5087893;27;45379;-74
2021/07/27 01:42:25;;;;;;;;;14.25;13.00;;;;;21.15;100.00;101021.97;5091171;27;45559;-74
2021/07/27 01:44:51;;;;;;;;;16.50;14.75;;;;;21.03;100.00;101017.31;5096740;27;45342;-75
2021/07/27 01:47:20;;;;;;;;;11.75;11.50;;;;;21.07;100.00;101021.53;5096588;27;45448;-75
2021/07/27 01:49:49;;;;;;;;;17.75;14.75;;;;;21.07;100.00;101018.88;5082292;27;45387;-74
2021/07/27 01:52:16;;;;;;;;;16.25;15.25;;;;;21.10;100.00;101029.34;5084678;27;45324;-75
2021/07/27 01:54:45;;;;;;;;;14.00;13.00;;;;;21.10;100.00;101027.53;5094163;27;45596;-74
2021/07/27 01:57:12;;;;;;;;;17.00;14.00;;;;;21.00;100.00;101010.38;5089547;27;45657;-75
2021/07/27 01:59:39;;;;;;;;;14.00;13.00;;;;;21.04;100.00;101013.72;5089194;27;45528;-74
2021/07/27 02:02:05;;;;;;;;;18.50;17.00;;;;;21.01;100.00;101008.56;5096651;27;45369;-74
2021/07/27 02:04:30;;;;;;;;;17.75;16.25;;;;;20.97;100.00;101007.88;5095786;27;46335;-75
2021/07/27 02:06:56;;;;;;;;;17.50;15.00;;;;;20.95;100.00;101004.44;5082026;27;45417;-75
2021/07/27 02:09:21;;;;;;;;;15.75;14.50;;;;;21.01;100.00;101014.72;5096247;27;45370;-74
2021/07/27 02:11:48;;;;;;;;;21.75;18.25;;;;;20.93;100.00;101006.34;5096153;27;45463;-74
2021/07/27 02:14:17;;;;;;;;;14.75;13.75;;;;;20.99;100.00;101011.31;5091355;27;45465;-75
2021/07/27 02:16:42;;;;;;;;;14.00;13.50;;;;;20.96;100.00;101000.84;5096092;27;45332;-74
2021/07/27 02:19:08;;;;;;;;;14.00;12.75;;;;;20.96;100.00;101011.47;5096177;27;45517;-75
2021/07/27 02:21:34;;;;;;;;;16.25;14.75;;;;;20.95;100.00;101000.94;5096434;27;45449;-74
2021/07/27 02:24:01;;;;;;;;;17.50;13.75;;;;;21.01;100.00;101008.56;5078266;27;46100;-74
2021/07/27 02:26:26;;;;;;;;;16.25;14.00;;;;;21.01;100.00;101012.09;5079733;27;45663;-75
2021/07/27 02:28:52;;;;;;;;;15.25;14.50;;;;;21.00;100.00;101009.50;5082465;27;45422;-75
2021/07/27 02:31:27;;;;;;;;;15.00;13.75;;;;;20.89;100.00;100999.47;5086654;27;45282;-74
2021/07/27 02:33:53;;;;;;;;;18.50;17.00;;;;;20.95;100.00;101009.75;5082522;27;46391;-73
2021/07/27 02:36:19;;;;;;;;;15.25;14.00;;;;;20.97;100.00;101010.53;5080789;27;45456;-74
2021/07/27 02:38:44;;;;;;;;;16.25;15.00;;;;;20.88;100.00;100992.44;5075675;27;45289;-74
2021/07/27 02:41:13;;;;;;;;;15.50;14.25;;;;;20.86;100.00;100988.16;5089464;27;45451;-75
2021/07/27 02:43:38;;;;;;;;;15.00;14.00;;;;;20.92;100.00;100996.66;5080572;27;46304;-75
2021/07/27 02:46:04;;;;;;;;;16.25;14.50;;;;;20.90;100.00;100987.06;5084129;27;45334;-75
2021/07/27 02:48:29;;;;;;;;;16.50;15.50;;;;;20.89;100.00;100980.03;5090616;27;45480;-75
2021/07/27 02:50:57;;;;;;;;;14.75;14.00;;;;;20.95;100.00;100996.50;5098222;27;45611;-74
2021/07/27 02:53:24;;;;;;;;;14.75;14.25;;;;;20.95;100.00;100993.84;5098988;27;46533;-74
2021/07/27 02:55:50;;;;;;;;;16.25;14.00;;;;;20.92;100.00;100994.00;5099502;27;45398;-74
2021/07/27 02:58:15;;;;;;;;;16.25;14.75;;;;;20.94;100.00;100997.44;5096147;27;45729;-75
2021/07/27 03:00:40;;;;;;;;;13.25;12.00;;;;;20.90;100.00;100989.72;5099362;27;45571;-74
2021/07/27 03:03:06;;;;;;;;;15.25;13.25;;;;;20.89;100.00;100988.84;5099302;27;46142;-74
2021/07/27 03:05:31;;;;;;;;;15.25;13.75;;;;;20.90;100.00;100993.22;5099215;27;45567;-75
2021/07/27 03:07:58;;;;;;;;;17.00;14.00;;;;;20.84;100.00;100982.09;5099272;27;45828;-75
2021/07/27 03:10:24;;;;;;;;;16.25;14.25;;;;;20.89;100.00;100993.31;5099327;27;45416;-75
2021/07/27 03:12:57;;;;;;;;;14.75;14.75;;;;;20.84;100.00;100984.75;5098824;27;45450;-75
2021/07/27 03:15:25;;;;;;;;;14.50;12.50;;;;;20.82;100.00;100976.84;5099211;27;45543;-75
2021/07/27 03:17:56;;;;;;;;;15.25;13.75;;;;;20.89;100.00;100982.69;5099162;27;45382;-75
2021/07/27 03:20:21;;;;;;;;;16.00;15.00;;;;;20.82;100.00;100968.00;5098996;27;45490;-75
2021/07/27 03:22:46;;;;;;;;;15.50;14.75;;;;;20.90;100.00;100973.78;5098803;27;47442;-75
2021/07/27 03:25:18;;;;;;;;;16.00;15.50;;;;;20.89;100.00;100972.94;5087633;27;45701;-74
2021/07/27 03:27:45;;;;;;;;;18.00;15.50;;;;;20.82;100.00;100960.94;5096662;27;45480;-75
2021/07/27 03:30:12;;;;;;;;;16.75;15.25;;;;;20.85;100.00;100958.13;5098820;27;45497;-75
2021/07/27 03:32:38;;;;;;;;;14.75;13.50;;;;;20.85;100.00;100950.16;5098521;27;46140;-75
2021/07/27 03:35:04;;;;;;;;;16.00;15.50;;;;;20.88;100.00;100952.63;5098336;27;45466;-75
2021/07/27 03:37:32;;;;;;;;;16.25;10.25;;;;;20.89;100.00;100950.84;5084780;27;45482;-75
2021/07/27 03:39:57;;;;;;;;;12.00;9.50;;;;;20.88;100.00;100946.47;5098464;27;45489;-75
2021/07/27 03:42:24;;;;;;;;;16.25;14.25;;;;;20.78;100.00;100932.81;5098249;27;46488;-74
2021/07/27 03:44:56;;;;;;;;;17.50;16.00;;;;;20.86;100.00;100954.53;5098535;27;45446;-74
2021/07/27 03:47:22;;;;;;;;;13.75;13.25;;;;;20.84;100.00;100945.78;5087728;27;45399;-74
2021/07/27 03:49:47;;;;;;;;;15.75;14.75;;;;;20.70;100.00;100935.91;5095154;27;45478;-74
2021/07/27 03:52:13;;;;;;;;;15.50;14.50;;;;;20.80;100.00;100949.50;5097999;27;45395;-75
2021/07/27 03:54:38;;;;;;;;;15.25;13.75;;;;;20.82;100.00;100954.75;5083672;27;45229;-74
2021/07/27 03:57:04;;;;;;;;;15.00;14.00;;;;;20.84;100.00;100950.25;5098354;27;45367;-75
2021/07/27 03:59:30;;;;;;;;;17.00;15.00;;;;;20.79;100.00;100948.66;5098313;27;45415;-75
2021/07/27 04:01:56;;;;;;;;;16.75;14.75;;;;;20.82;100.00;100960.06;5097803;27;47504;-74
2021/07/27 04:04:21;;;;;;;;;16.25;15.00;;;;;20.69;100.00;100939.50;5098402;27;45343;-75
2021/07/27 04:06:47;;;;;;;;;17.00;14.75;;;;;20.74;100.00;100947.19;5098202;27;45520;-75
2021/07/27 04:09:13;;;;;;;;;13.75;12.50;;;;;20.69;100.00;100944.78;5098743;27;45502;-74
2021/07/27 04:11:38;;;;;;;;;13.75;13.25;;;;;20.73;100.00;100948.13;5097246;27;45838;-75
2021/07/27 04:14:05;;;;;;;;;12.75;12.75;;;;;20.76;100.00;100951.47;5097896;27;45372;-75
2021/07/27 04:16:30;;;;;;;;;16.75;15.75;;;;;20.76;100.00;100945.31;5098404;27;45471;-75
2021/07/27 04:18:56;;;;;;;;;15.50;14.25;;;;;20.72;100.00;100944.63;5098451;27;45460;-75
2021/07/27 04:21:21;;;;;;;;;17.00;15.75;;;;;20.72;100.00;100941.13;5098176;27;45362;-75
2021/07/27 04:23:46;;;;;;;;;16.50;14.00;;;;;20.68;100.00;100939.56;5097484;27;45412;-75
2021/07/27 04:26:12;;;;;;;;;18.00;15.00;;;;;20.70;100.00;100951.81;5098108;27;45477;-75
2021/07/27 04:28:37;;;;;;;;;14.75;13.00;;;;;20.62;100.00;100947.88;5097508;27;45339;-75
2021/07/27 04:31:03;;;;;;;;;14.25;12.50;;;;;20.63;100.00;100954.88;5098159;27;45512;-75
2021/07/27 04:33:28;;;;;;;;;13.25;13.00;;;;;20.70;100.00;100969.53;5098077;27;45372;-75
2021/07/27 04:35:54;;;;;;;;;14.75;13.50;;;;;20.70;100.00;100970.38;5097571;27;45320;-75
2021/07/27 04:38:23;;;;;;;;;15.50;14.50;;;;;20.74;100.00;100973.72;5097883;27;45453;-75
2021/07/27 04:40:51;;;;;;;;;16.50;15.25;;;;;20.74;100.00;100973.72;5097563;27;47136;-74
2021/07/27 04:43:17;;;;;;;;;14.75;14.25;;;;;20.71;100.00;100973.91;5097341;27;45398;-75
2021/07/27 04:45:42;;;;;;;;;14.50;14.00;;;;;20.65;100.00;100950.34;5097610;27;45410;-74
2021/07/27 04:48:08;;;;;;;;;17.00;15.00;;;;;20.71;100.00;100955.31;5107004;27;45475;-74
2021/07/27 04:50:35;;;;;;;;;17.25;15.00;;;;;20.71;100.00;100934.09;5097442;27;46972;-75
2021/07/27 04:53:01;;;;;;;;;18.75;15.00;;;;;20.72;100.00;100930.50;5097752;27;45783;-74
2021/07/27 04:55:27;;;;;;;;;14.00;13.75;;;;;20.72;100.00;100938.47;5097696;27;45704;-74
2021/07/27 04:57:52;;;;;;;;;16.25;13.75;;;;;20.73;100.00;100946.34;5097487;27;45572;-75
2021/07/27 05:00:20;;;;;;;;;16.00;15.25;;;;;20.74;100.00;100960.47;5097324;27;46227;-74
2021/07/27 05:02:45;;;;;;;;;12.00;11.25;;;;;20.74;100.00;100968.44;5096991;27;45668;-75
2021/07/27 05:05:11;;;;;;;;;14.25;12.75;;;;;20.74;100.00;100956.00;5097406;27;45265;-75
2021/07/27 05:07:36;;;;;;;;;18.00;15.25;;;;;20.75;100.00;100959.53;5097086;27;45457;-75
2021/07/27 05:10:04;;;;;;;;;17.00;15.00;;;;;20.62;100.00;100924.00;5092293;27;46223;-76
2021/07/27 05:12:29;;;;;;;;;15.75;14.50;;;;;20.72;100.00;100943.78;5091140;27;45327;-74
2021/07/27 05:14:54;;;;;;;;;15.50;14.75;;;;;20.68;100.00;100934.25;5096908;27;45425;-73
2021/07/27 05:17:20;;;;;;;;;15.00;14.00;;;;;20.67;100.00;100936.06;5083233;27;45342;-75
2021/07/27 05:19:52;;;;;;;;;15.25;13.25;;;;;20.70;100.00;100948.31;5087962;27;46814;-75
2021/07/27 05:22:18;;;;;;;;;23.50;17.75;;;;;20.66;100.00;100955.56;5096113;27;45496;-73
2021/07/27 05:24:43;;;;;;;;;15.25;14.00;;;;;20.70;100.00;100958.91;5096742;27;45597;-74
2021/07/27 05:27:08;;;;;;;;;13.50;11.00;;;;;20.69;100.00;100968.69;5096254;27;45215;-77
2021/07/27 05:29:34;;;;;;;;;14.00;12.00;;;;;20.62;100.00;100958.47;5095156;27;47197;-75
2021/07/27 05:32:04;;;;;;;;;15.50;13.50;;;;;20.61;100.00;100967.38;5096606;27;45322;-76
2021/07/27 05:34:30;;;;;;;;;18.50;15.75;;;;;20.60;100.00;100977.13;5095262;27;45532;-77
2021/07/27 05:36:55;;;;;;;;;15.00;12.00;;;;;20.56;100.00;100964.06;5097409;27;45470;-77
2021/07/27 05:39:20;;;;;;;;;13.25;13.25;;;;;20.56;100.00;100967.59;5096379;27;46613;-78
2021/07/27 05:41:46;;;;;;;;;16.00;14.25;;;;;20.51;100.00;100966.97;5083152;27;45393;-79
2021/07/27 05:44:11;;;;;;;;;15.25;14.50;;;;;20.62;100.00;100974.41;5084269;27;45337;-77
2021/07/27 05:46:37;;;;;;;;;13.50;12.50;;;;;20.62;100.00;100974.41;5090603;27;45532;-78
2021/07/27 05:49:04;;;;;;;;;19.00;16.75;;;;;20.65;100.00;100984.84;5087419;27;46067;-78
2021/07/27 05:51:30;;;;;;;;;16.25;14.75;;;;;20.55;100.00;100976.47;5094442;27;45614;-77
2021/07/27 05:53:55;;;;;;;;;13.00;12.25;;;;;20.52;100.00;100967.84;5096760;27;45397;-74
2021/07/27 05:56:21;;;;;;;;;16.50;15.25;;;;;20.49;100.00;100975.03;5096113;27;45381;-77
2021/07/27 05:58:47;;;;;;;;;14.00;13.00;;;;;20.58;100.00;100994.03;5085403;27;46308;-75
2021/07/27 06:01:12;;;;;;;;;15.75;14.00;;;;;20.45;100.00;100984.06;5095399;27;45579;-76
2021/07/27 06:03:37;;;;;;;;;14.50;14.50;;;;;20.42;100.00;100984.25;5095971;27;45433;-77
2021/07/27 06:06:03;;;;;;;;;16.25;14.50;;;;;20.40;100.00;100979.91;5096147;27;45384;-77
2021/07/27 06:08:28;;;;;;;;;15.25;14.75;;;;;20.42;100.00;100973.63;5092414;27;46416;-78
2021/07/27 06:10:54;;;;;;;;;15.25;14.25;;;;;20.40;100.00;100969.31;5096296;27;45368;-80
2021/07/27 06:13:19;;;;;;;;;14.50;13.00;;;;;20.55;100.00;100991.53;5096646;27;45448;-79
2021/07/27 06:15:44;;;;;;;;;9.75;8.75;;;;;20.66;100.00;101018.41;5089965;27;45562;-80
2021/07/27 06:18:10;;;;;;;;;16.00;14.25;;;;;20.69;100.00;101019.09;5087988;27;46256;-80
2021/07/27 06:20:35;;;;;;;;;19.75;18.00;;;;;20.55;100.00;100986.25;5094540;27;46951;-80
2021/07/27 06:23:00;;;;;;;;;16.75;15.50;;;;;20.62;100.00;100991.16;5097540;27;45389;-79
2021/07/27 06:25:26;;;;;;;;;17.50;15.75;;;;;20.59;100.00;100975.38;5096132;27;45553;-81
2021/07/27 06:27:51;;;;;;;;;15.00;14.25;;;;;20.71;100.00;100997.78;5099291;27;45817;-80
2021/07/27 06:30:17;;;;;;;;;16.75;14.75;;;;;20.58;100.00;100983.44;5099205;27;45442;-81
2021/07/27 06:32:42;;;;;;;;;16.75;15.50;;;;;20.68;100.00;101000.59;5092226;27;45366;-80
2021/07/27 06:35:08;;;;;;;;;15.75;15.00;;;;;20.65;100.00;101003.41;5084055;27;45299;-80
2021/07/27 06:37:33;;;;;;;;;18.25;16.50;;;;;20.46;100.00;100976.97;5078980;27;45432;-80
2021/07/27 06:39:59;;;;;;;;;15.00;13.50;;;;;20.68;100.00;101011.22;5099097;27;45602;-79
2021/07/27 06:42:24;;;;;;;;;17.75;14.75;;;;;20.50;100.00;100983.84;5099748;27;45374;-77
2021/07/27 06:44:49;;;;;;;;;16.00;14.00;;;;;20.70;100.00;101018.16;5099603;27;46093;-78
2021/07/27 06:47:15;;;;;;;;;16.00;13.00;;;;;20.57;100.00;101000.28;5099472;27;46270;-78
2021/07/27 06:49:41;;;;;;;;;17.00;16.50;;;;;20.63;100.00;101024.72;5099158;27;45425;-81
2021/07/27 06:52:06;;;;;;;;;17.00;15.50;;;;;20.60;100.00;101002.81;5099161;27;45367;-80
2021/07/27 06:54:33;;;;;;;;;16.00;14.25;;;;;20.69;100.00;101010.28;5099688;27;45445;-79
2021/07/27 06:56:59;;;;;;;;;13.75;12.50;;;;;20.78;100.00;101031.00;5099260;27;45629;-79
2021/07/27 06:59:24;;;;;;;;;19.00;16.25;;;;;20.77;100.00;101031.94;5099202;27;45383;-79
2021/07/27 07:01:51;;;;;;;;;15.00;11.75;;;;;20.78;100.00;101031.00;5098937;27;45961;-79
2021/07/27 07:04:17;;;;;;;;;10.00;8.75;;;;;20.68;100.00;101011.22;5099675;27;45505;-79
2021/07/27 07:06:42;;;;;;;;;16.25;16.00;;;;;20.80;100.00;101029.13;5098912;27;46500;-79
2021/07/27 07:09:07;;;;;;;;;13.50;13.00;;;;;20.85;100.00;101031.56;5098905;27;45315;-79
2021/07/27 07:11:33;;;;;;;;;14.75;14.25;;;;;20.69;100.00;100986.41;5084995;27;45464;-79
2021/07/27 07:13:58;;;;;;;;;16.00;15.00;;;;;21.01;100.00;101022.69;5111587;27;45349;-78
2021/07/27 07:16:23;;;;;;;;;15.25;15.25;;;;;21.01;100.00;101004.13;5087092;27;45328;-79
2021/07/27 07:18:49;;;;;;;;;14.00;12.75;;;;;21.23;100.00;101027.72;5096388;27;45439;-78
2021/07/27 07:21:15;;;;;;;;;15.25;14.00;;;;;21.20;100.00;101027.88;5099067;27;45291;-78
2021/07/27 07:23:41;;;;;;;;;15.00;14.75;;;;;21.17;100.00;101016.56;5099086;27;45498;-79
2021/07/27 07:26:08;;;;;;;;;15.00;14.25;;;;;21.27;100.00;101034.59;5097588;27;45490;-79
2021/07/27 07:28:34;;;;;;;;;16.25;12.75;;;;;21.41;100.00;101047.16;5098711;27;45395;-79
2021/07/27 07:31:01;;;;;;;;;16.75;15.00;;;;;21.39;100.00;101023.34;5098365;27;45528;-78
2021/07/27 07:33:26;;;;;;;;;14.50;14.00;;;;;21.47;100.00;101030.88;5098555;27;45380;-79
2021/07/27 07:35:52;;;;;;;;;14.75;13.00;;;;;21.51;100.00;101028.94;5097532;27;46752;-78
2021/07/27 07:38:17;;;;;;;;;17.00;15.00;;;;;21.58;100.00;101041.78;5084175;27;45386;-79
2021/07/27 07:40:43;;;;;;;;;15.25;14.00;;;;;21.42;100.00;101010.81;5097378;27;45626;-78
2021/07/27 07:43:08;;;;;;;;;18.00;14.25;;;;;21.46;100.00;101007.03;5084543;27;45431;-79
2021/07/27 07:45:36;;;;;;;;;13.75;13.25;;;;;21.45;100.00;100995.56;5098101;27;46449;-80
2021/07/27 07:48:01;;;;;;;;;15.00;13.00;;;;;21.52;100.00;101022.69;5081663;27;45452;-84
2021/07/27 07:50:29;;;;;;;;;13.00;11.75;;;;;21.59;100.00;101032.00;5098499;27;45547;-80
2021/07/27 07:53:02;;;;;;;;;14.50;14.00;;;;;21.55;100.00;101028.66;5098844;27;45386;-80
2021/07/27 07:55:29;;;;;;;;;15.25;12.75;;;;;21.42;100.00;101018.78;5103881;27;45840;-81
2021/07/27 07:57:54;;;;;;;;;15.75;13.00;;;;;21.53;100.00;101037.66;5102739;27;45359;-81
2021/07/27 08:00:22;;;;;;;;;15.75;13.50;;;;;21.56;100.00;101043.66;5100651;27;45527;-81
2021/07/27 08:02:48;;;;;;;;;14.75;13.00;;;;;21.54;100.00;101040.25;5098528;27;45576;-80
2021/07/27 08:05:13;;;;;;;;;15.50;12.75;;;;;21.54;100.00;101042.91;5098060;27;45613;-79
2021/07/27 08:07:38;;;;;;;;;15.50;14.75;;;;;21.61;100.00;101046.94;5096876;27;45513;-79
2021/07/27 08:10:04;;;;;;;;;15.25;13.75;;;;;21.45;100.00;101023.94;5098256;27;45311;-81
2021/07/27 08:12:30;;;;;;;;;16.75;14.75;;;;;21.47;100.00;101032.66;5085919;27;45473;-80
2021/07/27 08:14:55;;;;;;;;;17.00;15.00;;;;;21.52;100.00;101054.56;5084471;27;45300;-80
2021/07/27 08:17:20;;;;;;;;;13.50;13.00;;;;;21.42;100.00;101034.72;5083887;27;45379;-79
2021/07/27 08:19:46;;;;;;;;;15.25;13.25;;;;;21.06;100.00;100993.28;5097986;27;45368;-80
2021/07/27 08:22:11;;;;;;;;;16.25;15.25;;;;;21.35;100.00;101039.53;5098414;27;45405;-80
2021/07/27 08:24:36;;;;;;;;;14.75;13.50;;;;;21.33;100.00;101041.41;5098048;27;45241;-79
2021/07/27 08:27:08;;;;;;;;;10.25;10.00;;;;;21.33;100.00;101063.53;5097979;27;45360;-78
2021/07/27 08:29:37;;;;;;;;;14.50;14.00;;;;;21.10;100.00;101040.81;5097020;27;45351;-80
2021/07/27 08:32:10;;;;;;;;;15.00;13.00;;;;;21.19;100.00;101057.19;5098088;27;45536;-80
2021/07/27 08:34:44;;;;;;;;;15.00;13.25;;;;;21.12;100.00;101038.06;5092815;27;45564;-80
2021/07/27 08:37:09;;;;;;;;;17.00;16.00;;;;;21.08;100.00;101032.06;5098229;27;45214;-80
2021/07/27 08:39:35;;;;;;;;;19.75;14.75;;;;;21.23;100.00;101048.09;5093729;27;45421;-80
2021/07/27 08:42:02;;;;;;;;;10.75;9.25;;;;;21.18;100.00;101026.25;5086274;27;45519;-81
2021/07/27 08:44:31;;;;;;;;;16.50;15.00;;;;;21.27;100.00;101031.09;5097413;27;48011;-80
2021/07/27 08:46:59;;;;;;;;;13.50;13.00;;;;;21.31;100.00;101032.66;5095344;27;45498;-80
2021/07/27 08:49:25;;;;;;;;;15.50;14.75;;;;;21.32;100.00;101037.03;5097107;27;45524;-79
2021/07/27 08:51:50;;;;;;;;;13.25;13.00;;;;;21.18;100.00;101020.94;5092152;27;45273;-79
2021/07/27 08:54:16;;;;;;;;;17.25;15.00;;;;;21.22;100.00;101027.81;5088370;27;45452;-79
2021/07/27 08:56:49;;;;;;;;;15.50;15.00;;;;;21.20;100.00;101037.66;5097329;27;45245;-78
2021/07/27 08:59:16;;;;;;;;;19.00;16.00;;;;;21.13;100.00;101030.97;5097168;27;45475;-79
2021/07/27 09:01:42;;;;;;;;;15.00;14.50;;;;;21.12;100.00;101037.22;5097442;27;45296;-80
2021/07/27 09:04:07;;;;;;;;;17.25;16.50;;;;;21.10;100.00;101040.81;5088389;27;46459;-78
2021/07/27 09:06:33;;;;;;;;;16.75;16.00;;;;;21.03;100.00;101036.75;5092860;27;45539;-79
2021/07/27 09:09:08;;;;;;;;;16.75;15.25;;;;;21.24;100.00;101047.19;5097644;27;45429;-79
2021/07/27 09:11:48;;;;;;;;;13.50;12.75;;;;;21.09;100.00;101017.00;5094069;27;45429;-76
2021/07/27 09:14:15;;;;;;;;;16.25;15.25;;;;;21.20;100.00;101029.69;5077652;27;46996;-77
2021/07/27 09:16:48;;;;;;;;;18.25;13.00;;;;;21.42;100.00;101051.53;5090568;27;45590;-78
2021/07/27 09:19:14;;;;;;;;;16.00;15.00;;;;;21.37;100.00;101040.31;5077039;27;45378;-77
2021/07/27 09:21:42;;;;;;;;;21.25;16.25;;;;;21.60;100.00;101057.63;5090052;27;45402;-78
2021/07/27 09:24:10;;;;;;;;;14.50;13.00;;;;;21.69;100.00;101060.63;5095455;27;48242;-77
2021/07/27 09:26:37;;;;;;;;;13.75;12.00;;;;;21.65;100.00;101056.44;5096277;27;45477;-78
2021/07/27 09:29:05;;;;;;;;;13.75;12.50;;;;;21.71;100.00;101066.72;5096301;27;45489;-77
2021/07/27 09:31:31;;;;;;;;;18.75;16.00;;;;;21.73;100.00;101060.47;5094212;27;45371;-77
2021/07/27 09:34:08;;;;;;;;;16.50;14.75;;;;;21.62;100.00;101045.13;5079048;27;46119;-77
2021/07/27 09:36:34;;;;;;;;;14.75;14.25;;;;;21.71;100.00;101048.13;5108656;27;45422;-78
2021/07/27 09:39:02;;;;;;;;;15.50;14.25;;;;;21.74;100.00;101047.13;5088232;27;45457;-80
2021/07/27 09:41:29;;;;;;;;;17.00;13.75;;;;;21.82;100.00;101052.84;5096151;27;45607;-80
2021/07/27 09:43:56;;;;;;;;;15.50;15.25;;;;;21.81;100.00;101047.63;5096375;27;46252;-78
2021/07/27 09:46:22;;;;;;;;;13.00;11.00;;;;;21.83;100.00;101035.97;5096497;27;45581;-78
2021/07/27 09:48:48;;;;;;;;;15.00;13.00;;;;;21.85;100.00;101035.88;5096515;27;45453;-77
2021/07/27 09:51:15;;;;;;;;;14.00;13.75;;;;;21.82;100.00;101028.06;5096639;27;45586;-78
2021/07/27 09:53:42;;;;;;;;;16.75;16.50;;;;;21.91;100.00;101051.47;5096378;27;45530;-77
2021/07/27 09:56:10;;;;;;;;;14.75;13.00;;;;;21.89;100.00;101056.00;5082878;27;45540;-78
2021/07/27 09:58:37;;;;;;;;;14.50;14.50;;;;;21.85;100.00;101049.16;5097094;27;45565;-79
2021/07/27 10:01:25;;;;;;;;;12.25;11.50;;;;;21.83;100.00;101054.56;5100593;27;45462;-79
2021/07/27 10:04:03;;;;;;;;;12.00;12.00;;;;;21.47;100.00;101006.97;5099611;27;45497;-76
2021/07/27 10:06:43;;;;;;;;;13.75;12.25;;;;;21.78;100.00;101069.06;5085840;27;45332;-80
2021/07/27 10:09:09;;;;;;;;;15.00;13.00;;;;;21.48;100.00;101035.25;5099645;27;45697;-78
2021/07/27 10:11:39;;;;;;;;;16.00;14.50;;;;;21.59;100.00;101067.41;5086073;27;45458;-81
2021/07/27 10:14:12;;;;;;;;;13.50;12.00;;;;;21.45;100.00;101043.38;5079668;27;45330;-80
2021/07/27 10:16:39;;;;;;;;;14.25;13.00;;;;;21.62;100.00;101072.56;5098786;27;45338;-80
2021/07/27 10:19:14;;;;;;;;;14.00;14.00;;;;;21.46;100.00;101055.72;5099471;27;45334;-79
2021/07/27 10:21:40;;;;;;;;;14.00;14.00;;;;;21.44;100.00;101054.97;5084308;27;45391;-80
2021/07/27 10:24:19;;;;;;;;;16.75;14.00;;;;;21.50;100.00;101075.00;5098753;27;46633;-80
2021/07/27 10:26:45;;;;;;;;;16.00;14.75;;;;;21.20;100.00;101040.31;5097945;27;45458;-79
2021/07/27 10:29:10;;;;;;;;;12.00;12.00;;;;;21.32;100.00;101063.59;5099531;27;45463;-80
2021/07/27 10:31:37;;;;;;;;;14.25;12.00;;;;;21.30;100.00;101076.97;5099792;27;45392;-79
2021/07/27 10:34:04;;;;;;;;;15.00;14.50;;;;;21.03;100.00;101046.50;5099015;27;46492;-81
2021/07/27 10:36:32;;;;;;;;;14.00;12.75;;;;;21.18;100.00;101074.91;5099426;27;45614;-78
2021/07/27 10:39:06;;;;;;;;;12.50;12.50;;;;;20.89;100.00;101026.03;5100009;27;45682;-80
2021/07/27 10:41:45;;;;;;;;;12.00;9.75;;;;;21.09;100.00;101057.69;5088629;27;45703;-80
2021/07/27 10:44:25;;;;;;;;;13.00;12.50;;;;;21.14;100.00;101061.88;5099856;27;45668;-78
2021/07/27 10:46:51;;;;;;;;;13.75;13.00;;;;;21.19;100.00;101076.63;5099456;27;45291;-78
2021/07/27 10:49:22;;;;;;;;;14.25;13.00;;;;;21.21;100.00;101076.53;5099408;27;46043;-78
2021/07/27 10:51:50;;;;;;;;;12.00;12.00;;;;;21.22;100.00;101063.19;5098321;27;45621;-80
2021/07/27 10:54:19;;;;;;;;;12.50;12.25;;;;;21.20;100.00;101057.09;5115002;27;47373;-80
2021/07/27 10:56:58;;;;;;;;;13.00;13.00;;;;;21.30;100.00;101066.34;5099653;27;45711;-80
2021/07/27 10:59:30;;;;;;;;;14.00;13.00;;;;;21.35;100.00;101064.28;5098557;27;45579;-80
2021/07/27 11:01:56;;;;;;;;;11.50;10.25;;;;;21.40;100.00;101050.75;5099364;27;45478;-82
2021/07/27 11:04:29;;;;;;;;;12.00;11.00;;;;;21.45;100.00;101034.56;5099326;27;45629;-81
2021/07/27 11:07:18;;;;;;;;;11.50;11.00;;;;;21.63;100.00;101046.84;5095091;27;45493;-79
2021/07/27 11:09:54;;;;;;;;;13.00;10.25;;;;;21.62;100.00;101029.19;5098448;27;45787;-80
2021/07/27 11:12:36;;;;;;;;;14.50;14.25;;;;;21.78;100.00;101046.00;5095921;27;45403;-80
2021/07/27 11:15:14;;;;;;;;;12.75;11.50;;;;;21.83;100.00;101038.63;5098538;27;45450;-80